Time;durP1;ratioP1;P1;durP2;ratioP2;P2;SDS_P1;SDS_P2;PMS_P1;PMS_P2;Temp;Humidity;BMP_temperature;BMP_pressure;BME280_temperature;BME280_humidity;BME280_pressure;Samples;Min_cycle;Max_cycle;Signal;HPM_P1;HPM_P2
2023/03/04 00:04:11;;;;;;;103.13;35.87;;;;;;;;;;10362657;28;20034;-83
2023/03/04 00:09:12;;;;;;;100.60;37.90;;;;;;;;;;10406196;28;20037;-83
2023/03/04 00:14:13;;;;;;;103.93;35.93;;;;;;;;;;10385821;28;20099;-84
2023/03/04 00:19:14;;;;;;;102.83;35.43;;;;;;;;;;10382593;28;20487;-84
2023/03/04 00:24:15;;;;;;;92.23;34.33;;;;;;;;;;10402523;28;20041;-83
2023/03/04 00:29:16;;;;;;;94.37;35.73;;;;;;;;;;10396082;28;20029;-84
2023/03/04 00:34:17;;;;;;;89.17;35.03;;;;;;;;;;10383060;28;20034;-84
2023/03/04 00:39:18;;;;;;;91.00;35.80;;;;;;;;;;10388542;28;20037;-84
2023/03/04 00:44:20;;;;;;;85.70;33.00;;;;;;;;;;10397666;28;20474;-83
2023/03/04 00:49:21;;;;;;;83.10;32.57;;;;;;;;;;10396282;28;20029;-83
2023/03/04 00:54:22;;;;;;;83.47;30.90;;;;;;;;;;10399220;28;20478;-84
2023/03/04 00:59:23;;;;;;;77.40;30.93;;;;;;;;;;10387300;28;20040;-83
2023/03/04 01:04:24;;;;;;;74.23;29.77;;;;;;;;;;10392451;28;20041;-83
2023/03/04 01:09:25;;;;;;;76.37;30.10;;;;;;;;;;10390571;28;20052;-84
2023/03/04 01:14:26;;;;;;;72.13;28.80;;;;;;;;;;10402561;28;20038;-84
2023/03/04 01:19:27;;;;;;;84.87;29.60;;;;;;;;;;10370003;28;20045;-83
2023/03/04 01:24:29;;;;;;;87.87;32.90;;;;;;;;;;10390872;28;20049;-84
2023/03/04 01:29:30;;;;;;;87.70;32.17;;;;;;;;;;10399387;28;20485;-84
2023/03/04 01:34:31;;;;;;;73.30;28.57;;;;;;;;;;10379525;28;20044;-83
2023/03/04 01:39:32;;;;;;;69.97;24.50;;;;;;;;;;10388764;28;20164;-84
2023/03/04 01:44:34;;;;;;;70.90;27.23;;;;;;;;;;10388984;28;20038;-84
2023/03/04 01:49:34;;;;;;;75.90;28.40;;;;;;;;;;10390839;28;20041;-84
2023/03/04 01:54:35;;;;;;;76.93;28.50;;;;;;;;;;10392345;28;20061;-84
2023/03/04 01:59:36;;;;;;;74.57;27.23;;;;;;;;;;10401125;28;20437;-84
2023/03/04 02:04:38;;;;;;;89.53;28.93;;;;;;;;;;10383624;28;20045;-84
2023/03/04 02:09:39;;;;;;;81.63;30.70;;;;;;;;;;10395006;28;20033;-84
2023/03/04 02:14:40;;;;;;;80.87;30.63;;;;;;;;;;10402172;28;20448;-85
2023/03/04 02:19:46;;;;;;;75.47;26.37;;;;;;;;;;10374112;28;20041;-84
2023/03/04 02:24:49;;;;;;;74.35;25.92;;;;;;;;;;10384695;28;20034;-85
2023/03/04 02:29:50;;;;;;;80.60;30.10;;;;;;;;;;10384452;28;20021;-83
2023/03/04 02:34:51;;;;;;;77.43;29.57;;;;;;;;;;10376756;28;20030;-84
2023/03/04 02:39:52;;;;;;;85.37;31.43;;;;;;;;;;10394716;28;20033;-84
2023/03/04 02:45:00;;;;;;;94.07;33.13;;;;;;;;;;10401580;28;20041;-84
2023/03/04 02:50:01;;;;;;;88.63;33.13;;;;;;;;;;10379633;28;20029;-85
2023/03/04 02:55:02;;;;;;;92.37;33.50;;;;;;;;;;10400839;28;20052;-84
2023/03/04 03:00:04;;;;;;;101.87;34.97;;;;;;;;;;10394769;28;20052;-84
2023/03/04 03:05:05;;;;;;;91.37;33.63;;;;;;;;;;10399296;28;20041;-85
2023/03/04 03:10:06;;;;;;;90.97;34.30;;;;;;;;;;10369135;28;20497;-84
2023/03/04 03:15:08;;;;;;;99.63;33.43;;;;;;;;;;10381669;28;20021;-84
2023/03/04 03:20:11;;;;;;;100.73;34.50;;;;;;;;;;10381468;28;20032;-84
2023/03/04 03:25:13;;;;;;;100.67;33.53;;;;;;;;;;10384773;28;20064;-84
2023/03/04 03:30:15;;;;;;;94.37;33.67;;;;;;;;;;10391226;28;20038;-83
2023/03/04 03:35:16;;;;;;;97.60;35.20;;;;;;;;;;10367395;28;20040;-84
2023/03/04 03:40:17;;;;;;;104.93;33.53;;;;;;;;;;10401123;28;20029;-84
2023/03/04 03:45:18;;;;;;;90.57;29.83;;;;;;;;;;10387029;28;20048;-84
2023/03/04 03:50:19;;;;;;;65.87;20.83;;;;;;;;;;10390751;28;20041;-84
2023/03/04 03:55:20;;;;;;;57.67;20.93;;;;;;;;;;10383599;28;20049;-84
2023/03/04 04:00:21;;;;;;;57.47;20.17;;;;;;;;;;10388244;28;20038;-84
2023/03/04 04:05:22;;;;;;;55.23;20.90;;;;;;;;;;10381358;28;20460;-84
2023/03/04 04:10:24;;;;;;;59.23;20.80;;;;;;;;;;10399308;28;20022;-83
2023/03/04 04:15:25;;;;;;;61.70;21.60;;;;;;;;;;10388940;28;20088;-84
2023/03/04 04:20:26;;;;;;;61.20;24.10;;;;;;;;;;10403021;28;20037;-85
2023/03/04 04:25:27;;;;;;;66.03;25.60;;;;;;;;;;10403414;28;20041;-84
2023/03/04 04:30:28;;;;;;;69.33;30.70;;;;;;;;;;10395788;28;20046;-84
2023/03/04 04:35:29;;;;;;;71.73;30.37;;;;;;;;;;10389478;28;20042;-84
2023/03/04 04:40:30;;;;;;;75.77;30.00;;;;;;;;;;10392709;28;20092;-84
2023/03/04 04:45:31;;;;;;;83.73;29.50;;;;;;;;;;10369996;28;20042;-84
2023/03/04 04:50:32;;;;;;;84.40;32.83;;;;;;;;;;10403419;28;20037;-84
2023/03/04 04:55:33;;;;;;;78.70;29.13;;;;;;;;;;10401720;28;20464;-83
2023/03/04 05:00:34;;;;;;;84.63;31.37;;;;;;;;;;10389226;28;20109;-84
2023/03/04 05:05:35;;;;;;;77.73;27.80;;;;;;;;;;10398229;28;20059;-84
2023/03/04 05:10:36;;;;;;;68.67;25.43;;;;;;;;;;10389384;28;20033;-83
2023/03/04 05:15:38;;;;;;;60.97;25.20;;;;;;;;;;10367296;28;20308;-83
2023/03/04 05:20:39;;;;;;;55.47;23.23;;;;;;;;;;10393787;28;20021;-83
2023/03/04 05:25:40;;;;;;;57.97;24.40;;;;;;;;;;10368881;28;20112;-84
2023/03/04 05:30:41;;;;;;;61.00;25.10;;;;;;;;;;10383887;28;20088;-84
2023/03/04 05:35:43;;;;;;;54.23;21.83;;;;;;;;;;10367678;28;20547;-83
2023/03/04 05:40:45;;;;;;;56.30;23.63;;;;;;;;;;10357422;28;20459;-84
2023/03/04 05:45:46;;;;;;;58.03;22.23;;;;;;;;;;10367450;28;20397;-84
2023/03/04 05:50:47;;;;;;;48.60;21.57;;;;;;;;;;10368541;28;20037;-82
2023/03/04 05:55:48;;;;;;;51.10;22.10;;;;;;;;;;10386215;28;20054;-83
2023/03/04 06:00:49;;;;;;;60.37;25.50;;;;;;;;;;10364060;28;20022;-86
2023/03/04 06:05:50;;;;;;;62.93;26.37;;;;;;;;;;10368466;28;20042;-86
2023/03/04 06:10:52;;;;;;;50.47;20.53;;;;;;;;;;10380816;28;20497;-85
2023/03/04 06:15:57;;;;;;;78.10;31.17;;;;;;;;;;10363172;28;20104;-85
2023/03/04 06:20:59;;;;;;;57.53;25.97;;;;;;;;;;10377885;28;20034;-85
2023/03/04 06:26:01;;;;;;;63.27;25.47;;;;;;;;;;10388721;28;20132;-84
2023/03/04 06:31:02;;;;;;;59.43;26.13;;;;;;;;;;10362735;28;20037;-86
2023/03/04 06:36:03;;;;;;;66.27;27.27;;;;;;;;;;10362316;28;20042;-85
2023/03/04 06:41:08;;;;;;;59.47;26.77;;;;;;;;;;10379963;28;20069;-87
2023/03/04 06:46:09;;;;;;;59.43;25.60;;;;;;;;;;10357835;28;20477;-85
2023/03/04 06:51:11;;;;;;;53.87;21.33;;;;;;;;;;10376346;28;20037;-85
2023/03/04 06:56:16;;;;;;;50.80;20.83;;;;;;;;;;10368167;28;20048;-85
2023/03/04 07:01:21;;;;;;;47.47;20.53;;;;;;;;;;10346463;28;20058;-85
2023/03/04 07:06:24;;;;;;;54.43;22.73;;;;;;;;;;10372552;28;20865;-84
2023/03/04 07:11:25;;;;;;;48.30;21.47;;;;;;;;;;10359886;28;20500;-81
2023/03/04 07:16:26;;;;;;;42.60;17.70;;;;;;;;;;10360970;28;20037;-83
2023/03/04 07:21:27;;;;;;;48.37;20.67;;;;;;;;;;10357466;28;20029;-81
2023/03/04 07:26:28;;;;;;;56.33;22.77;;;;;;;;;;10356188;28;20463;-85
2023/03/04 07:31:30;;;;;;;48.90;17.67;;;;;;;;;;10347031;28;20042;-83
2023/03/04 07:36:32;;;;;;;48.90;19.27;;;;;;;;;;10374064;28;20030;-82
2023/03/04 07:41:36;;;;;;;47.37;20.63;;;;;;;;;;10352072;28;20030;-81
2023/03/04 07:46:37;;;;;;;45.33;18.37;;;;;;;;;;10356414;28;20126;-83
2023/03/04 07:51:38;;;;;;;49.63;19.17;;;;;;;;;;10351331;28;20382;-83
2023/03/04 07:56:39;;;;;;;51.43;19.73;;;;;;;;;;10372777;28;20057;-84
2023/03/04 08:01:40;;;;;;;47.67;19.90;;;;;;;;;;10377770;28;20042;-79
2023/03/04 08:06:41;;;;;;;49.63;21.10;;;;;;;;;;10375150;28;20898;-84
2023/03/04 08:11:43;;;;;;;56.07;23.17;;;;;;;;;;10383284;28;20148;-85
2023/03/04 08:16:44;;;;;;;48.73;19.50;;;;;;;;;;10370538;28;20037;-84
2023/03/04 08:21:45;;;;;;;61.27;25.40;;;;;;;;;;10365996;28;20067;-83
2023/03/04 08:26:47;;;;;;;55.77;25.00;;;;;;;;;;10372044;28;20137;-83
2023/03/04 08:31:49;;;;;;;53.37;21.93;;;;;;;;;;10367985;28;20040;-83
2023/03/04 08:36:50;;;;;;;48.17;20.53;;;;;;;;;;10390752;28;20033;-83
2023/03/04 08:41:51;;;;;;;55.47;23.97;;;;;;;;;;10376308;28;20071;-83
2023/03/04 08:46:52;;;;;;;69.90;30.73;;;;;;;;;;10374686;28;20041;-83
2023/03/04 08:51:53;;;;;;;51.30;23.57;;;;;;;;;;10379682;28;20029;-85
2023/03/04 08:56:54;;;;;;;57.63;24.87;;;;;;;;;;10374443;28;20081;-84
2023/03/04 09:01:55;;;;;;;60.60;26.97;;;;;;;;;;10378113;28;20104;-84
2023/03/04 09:06:56;;;;;;;63.70;28.97;;;;;;;;;;10393372;28;20383;-83
2023/03/04 09:11:57;;;;;;;54.77;24.97;;;;;;;;;;10379458;28;20081;-83
2023/03/04 09:16:58;;;;;;;91.30;44.40;;;;;;;;;;10374446;28;20045;-84
2023/03/04 09:21:59;;;;;;;67.87;31.43;;;;;;;;;;10380486;28;20029;-84
2023/03/04 09:27:00;;;;;;;68.57;31.83;;;;;;;;;;10377305;28;20037;-84
2023/03/04 09:32:01;;;;;;;69.10;30.97;;;;;;;;;;10392881;28;20055;-84
2023/03/04 09:37:02;;;;;;;65.37;31.00;;;;;;;;;;10397025;28;20025;-84
2023/03/04 09:42:05;;;;;;;66.63;29.27;;;;;;;;;;10387813;28;20088;-83
2023/03/04 09:47:11;;;;;;;69.73;30.47;;;;;;;;;;10396605;28;20037;-83
2023/03/04 09:52:20;;;;;;;67.20;28.67;;;;;;;;;;10379310;28;20057;-84
2023/03/04 09:57:26;;;;;;;68.70;30.50;;;;;;;;;;10388049;28;20057;-83
2023/03/04 10:02:28;;;;;;;;;;;;;;;;;;10391984;28;20049;-84
2023/03/04 10:07:37;;;;;;;68.60;31.30;;;;;;;;;;10378314;28;19952;-83
2023/03/04 10:12:40;;;;;;;67.10;29.93;;;;;;;;;;10387340;28;20044;-83
2023/03/04 10:17:42;;;;;;;62.87;29.30;;;;;;;;;;10382249;28;20751;-84
2023/03/04 10:22:50;;;;;;;71.97;31.77;;;;;;;;;;10392008;28;20038;-82
2023/03/04 10:27:57;;;;;;;66.60;29.17;;;;;;;;;;10376787;28;20037;-82
2023/03/04 10:32:59;;;;;;;60.23;28.43;;;;;;;;;;10378577;28;20038;-82
2023/03/04 10:38:01;;;;;;;61.00;27.30;;;;;;;;;;10378036;28;20022;-83
2023/03/04 10:43:06;;;;;;;62.10;25.90;;;;;;;;;;10403108;28;20038;-81
2023/03/04 10:48:17;;;;;;;63.80;28.23;;;;;;;;;;10374949;28;20038;-83
2023/03/04 10:53:38;;;;;;;62.67;24.90;;;;;;;;;;10386880;28;20048;-82
2023/03/04 10:58:39;;;;;;;64.77;27.53;;;;;;;;;;10393287;28;20165;-81
2023/03/04 11:03:45;;;;;;;72.13;30.27;;;;;;;;;;10385620;28;20041;-82
2023/03/04 11:08:53;;;;;;;67.63;30.67;;;;;;;;;;10381483;28;20029;-81
2023/03/04 11:14:00;;;;;;;66.23;30.80;;;;;;;;;;10376029;28;20453;-82
2023/03/04 11:19:09;;;;;;;74.07;33.77;;;;;;;;;;10358965;28;20037;-81
2023/03/04 11:24:14;;;;;;;65.17;29.60;;;;;;;;;;10357771;28;20044;-81
2023/03/04 11:29:17;;;;;;;88.55;36.22;;;;;;;;;;10359943;28;20049;-82
2023/03/04 11:34:37;;;;;;;72.13;32.37;;;;;;;;;;10350353;28;20105;-83
2023/03/04 11:39:40;;;;;;;74.33;31.60;;;;;;;;;;10360063;28;20026;-80
2023/03/04 11:44:41;;;;;;;67.77;29.80;;;;;;;;;;10360118;28;20129;-82
2023/03/04 11:49:45;;;;;;;73.93;32.57;;;;;;;;;;10361496;28;20041;-81
2023/03/04 11:54:46;;;;;;;76.53;33.70;;;;;;;;;;10355743;28;20054;-81
2023/03/04 11:59:47;;;;;;;64.73;28.43;;;;;;;;;;10360216;28;20030;-82
2023/03/04 12:04:51;;;;;;;69.47;30.33;;;;;;;;;;10365701;28;20081;-83
2023/03/04 12:10:08;;;;;;;64.67;29.17;;;;;;;;;;10367699;28;20062;-84
2023/03/04 12:15:17;;;;;;;71.80;31.27;;;;;;;;;;10356586;28;20038;-82
2023/03/04 12:20:24;;;;;;;63.23;29.33;;;;;;;;;;10365250;28;20034;-83
2023/03/04 12:26:01;;;;;;;69.33;29.50;;;;;;;;;;10374420;28;20088;-82
2023/03/04 12:31:08;;;;;;;63.35;28.08;;;;;;;;;;10303763;28;20094;-82
2023/03/04 12:36:28;;;;;;;73.03;32.53;;;;;;;;;;10387014;28;20472;-83
2023/03/04 12:41:43;;;;;;;72.93;30.43;;;;;;;;;;10386169;28;20485;-82
2023/03/04 12:46:53;;;;;;;76.77;33.13;;;;;;;;;;10376852;28;20042;-81
2023/03/04 12:52:02;;;;;;;69.87;29.37;;;;;;;;;;10365362;28;20501;-81
2023/03/04 12:57:13;;;;;;;89.83;40.77;;;;;;;;;;10362810;28;20073;-83
2023/03/04 13:02:23;;;;;;;87.00;34.53;;;;;;;;;;10366624;28;20034;-82
2023/03/04 13:07:24;;;;;;;114.17;59.17;;;;;;;;;;10363581;28;20038;-80
2023/03/04 13:12:25;;;;;;;114.93;45.00;;;;;;;;;;10365953;28;20490;-82
2023/03/04 13:17:42;;;;;;;95.17;41.70;;;;;;;;;;10365909;28;20034;-81
2023/03/04 13:22:43;;;;;;;;;;;;;;;;;;10352412;28;20068;-83
2023/03/04 13:27:51;;;;;;;107.33;41.27;;;;;;;;;;10361413;28;19913;-82
2023/03/04 13:32:52;;;;;;;109.70;44.57;;;;;;;;;;10379979;28;20026;-83
2023/03/04 13:37:59;;;;;;;67.83;31.57;;;;;;;;;;10364606;28;20042;-82
2023/03/04 13:43:17;;;;;;;61.80;28.87;;;;;;;;;;10364961;28;20042;-83
2023/03/04 13:48:24;;;;;;;67.47;30.73;;;;;;;;;;10361069;28;20034;-84
2023/03/04 13:53:29;;;;;;;67.53;31.90;;;;;;;;;;10353967;28;20161;-84
2023/03/04 13:58:30;;;;;;;57.27;24.10;;;;;;;;;;10360328;28;20048;-83
2023/03/04 14:03:31;;;;;;;60.13;26.93;;;;;;;;;;10364431;28;20034;-84
2023/03/04 14:08:32;;;;;;;50.40;23.13;;;;;;;;;;10356915;28;20066;-83
2023/03/04 14:13:33;;;;;;;67.07;29.53;;;;;;;;;;10362952;28;20042;-83
2023/03/04 14:18:35;;;;;;;75.27;32.73;;;;;;;;;;10371618;28;20037;-83
2023/03/04 14:23:36;;;;;;;57.03;27.23;;;;;;;;;;10376789;28;20137;-83
2023/03/04 14:28:45;;;;;;;55.47;27.07;;;;;;;;;;10387092;28;20504;-83
2023/03/04 14:33:48;;;;;;;45.17;20.37;;;;;;;;;;10386213;28;20026;-82
2023/03/04 14:38:57;;;;;;;44.17;18.87;;;;;;;;;;10356456;28;20025;-80
2023/03/04 14:44:18;;;;;;;50.07;20.93;;;;;;;;;;10394965;28;20541;-81
2023/03/04 14:49:20;;;;;;;48.37;23.10;;;;;;;;;;10392748;28;20038;-82
2023/03/04 14:54:44;;;;;;;40.40;17.70;;;;;;;;;;10403274;28;20050;-80
2023/03/04 14:59:45;;;;;;;54.03;22.47;;;;;;;;;;10395500;28;20049;-80
2023/03/04 15:04:47;;;;;;;44.07;20.73;;;;;;;;;;10403653;28;20095;-83
2023/03/04 15:09:49;;;;;;;66.17;24.87;;;;;;;;;;10403464;28;20029;-82
2023/03/04 15:14:55;;;;;;;44.43;22.27;;;;;;;;;;10402449;28;20041;-80
2023/03/04 15:20:18;;;;;;;44.53;19.10;;;;;;;;;;10401925;28;20140;-80
2023/03/04 15:25:21;;;;;;;47.77;20.77;;;;;;;;;;10379532;28;20478;-81
2023/03/04 15:30:30;;;;;;;37.33;16.23;;;;;;;;;;10323851;28;20036;-80
2023/03/04 15:35:32;;;;;;;43.13;19.70;;;;;;;;;;10321289;28;20030;-81
2023/03/04 15:40:37;;;;;;;37.17;16.73;;;;;;;;;;10322315;28;20061;-80
2023/03/04 15:45:38;;;;;;;37.60;17.30;;;;;;;;;;10322111;28;20077;-81
2023/03/04 15:50:41;;;;;;;35.10;16.57;;;;;;;;;;10322272;28;20030;-83
2023/03/04 15:55:44;;;;;;;37.77;18.63;;;;;;;;;;10321054;28;20100;-81
2023/03/04 16:00:45;;;;;;;45.07;21.37;;;;;;;;;;10328502;28;20462;-81
2023/03/04 16:05:48;;;;;;;45.83;20.53;;;;;;;;;;10379959;28;20029;-80
2023/03/04 16:10:49;;;;;;;35.80;15.90;;;;;;;;;;10400707;28;20033;-81
2023/03/04 16:15:50;;;;;;;39.70;17.50;;;;;;;;;;10402311;28;20091;-80
2023/03/04 16:20:51;;;;;;;40.97;18.33;;;;;;;;;;10401706;28;20083;-80
2023/03/04 16:25:54;;;;;;;39.97;18.17;;;;;;;;;;10402193;28;20045;-80
2023/03/04 16:30:55;;;;;;;54.93;25.60;;;;;;;;;;10401762;28;20033;-80
2023/03/04 16:35:56;;;;;;;57.83;25.47;;;;;;;;;;10401634;28;20505;-81
2023/03/04 16:41:00;;;;;;;56.83;27.00;;;;;;;;;;10401991;28;20038;-81
2023/03/04 16:46:01;;;;;;;66.27;29.97;;;;;;;;;;10401441;28;20044;-80
2023/03/04 16:51:03;;;;;;;65.33;27.97;;;;;;;;;;10408075;28;20033;-80
2023/03/04 16:56:06;;;;;;;70.43;30.13;;;;;;;;;;10408557;28;20062;-81
2023/03/04 17:01:14;;;;;;;58.60;26.73;;;;;;;;;;10408941;28;20032;-82
2023/03/04 17:06:15;;;;;;;60.20;25.37;;;;;;;;;;10408105;28;20048;-81
2023/03/04 17:11:18;;;;;;;62.23;27.13;;;;;;;;;;10401507;28;20261;-82
2023/03/04 17:16:19;;;;;;;70.00;28.97;;;;;;;;;;10385519;28;20029;-80
2023/03/04 17:21:21;;;;;;;73.30;31.30;;;;;;;;;;10407437;28;20032;-82
2023/03/04 17:26:22;;;;;;;68.53;30.97;;;;;;;;;;10406045;28;20405;-80
2023/03/04 17:31:23;;;;;;;81.03;33.07;;;;;;;;;;10406033;28;20033;-82
2023/03/04 17:36:24;;;;;;;69.17;31.43;;;;;;;;;;10407543;28;20040;-80
2023/03/04 17:41:26;;;;;;;79.13;35.13;;;;;;;;;;10407193;28;20045;-80
2023/03/04 17:46:27;;;;;;;83.53;36.47;;;;;;;;;;10407146;28;20148;-81
2023/03/04 17:51:30;;;;;;;80.37;34.10;;;;;;;;;;10407288;28;20033;-80
2023/03/04 17:56:31;;;;;;;77.40;34.93;;;;;;;;;;10406813;28;20049;-83
2023/03/04 18:01:32;;;;;;;80.67;36.67;;;;;;;;;;10406559;28;20033;-81
2023/03/04 18:06:33;;;;;;;70.77;35.50;;;;;;;;;;10405944;28;20045;-80
2023/03/04 18:11:36;;;;;;;71.37;34.97;;;;;;;;;;10406341;28;20465;-80
2023/03/04 18:16:37;;;;;;;101.73;41.23;;;;;;;;;;10406266;28;20034;-82
2023/03/04 18:21:38;;;;;;;75.67;34.40;;;;;;;;;;10405817;28;20030;-80
2023/03/04 18:26:39;;;;;;;75.73;35.23;;;;;;;;;;10404910;28;20037;-81
2023/03/04 18:31:40;;;;;;;85.30;33.87;;;;;;;;;;10387741;28;20531;-81
2023/03/04 18:36:41;;;;;;;91.07;39.57;;;;;;;;;;10387914;28;20033;-81
2023/03/04 18:41:42;;;;;;;95.93;39.03;;;;;;;;;;10403818;28;20399;-81
2023/03/04 18:46:44;;;;;;;95.60;42.37;;;;;;;;;;10403636;28;20042;-80
2023/03/04 18:51:45;;;;;;;85.63;41.13;;;;;;;;;;10403756;28;20425;-81
2023/03/04 18:56:57;;;;;;;63.70;30.63;;;;;;;;;;10403613;28;20119;-82
2023/03/04 19:02:01;;;;;;;66.67;32.40;;;;;;;;;;10403999;28;20481;-80
2023/03/04 19:07:02;;;;;;;74.93;33.53;;;;;;;;;;10403360;28;20033;-81
2023/03/04 19:12:05;;;;;;;90.00;41.53;;;;;;;;;;10402325;28;20033;-80
2023/03/04 19:17:06;;;;;;;65.00;30.53;;;;;;;;;;10377262;28;20068;-81
2023/03/04 19:22:07;;;;;;;76.83;36.83;;;;;;;;;;10402543;28;20693;-81
2023/03/04 19:27:08;;;;;;;65.13;32.77;;;;;;;;;;10402369;28;20039;-81
2023/03/04 19:32:09;;;;;;;71.87;38.37;;;;;;;;;;10402935;28;20371;-81
2023/03/04 19:37:10;;;;;;;98.23;44.27;;;;;;;;;;10402220;28;20026;-81
2023/03/04 19:42:12;;;;;;;94.27;44.77;;;;;;;;;;10402264;28;20026;-80
2023/03/04 19:47:13;;;;;;;88.30;43.93;;;;;;;;;;10401330;28;20044;-82
2023/03/04 19:52:14;;;;;;;83.80;40.67;;;;;;;;;;10402523;28;20462;-81
2023/03/04 19:57:15;;;;;;;115.57;47.73;;;;;;;;;;10402510;28;20050;-82
2023/03/04 20:02:16;;;;;;;99.33;42.87;;;;;;;;;;10402220;28;20025;-81
2023/03/04 20:07:17;;;;;;;73.77;33.27;;;;;;;;;;10401113;28;20045;-80
2023/03/04 20:12:19;;;;;;;58.53;28.10;;;;;;;;;;10402612;28;20042;-82
2023/03/04 20:17:20;;;;;;;50.20;21.77;;;;;;;;;;10401661;28;20473;-81
2023/03/04 20:22:21;;;;;;;40.00;18.27;;;;;;;;;;10402744;28;20025;-81
2023/03/04 20:27:22;;;;;;;36.87;16.13;;;;;;;;;;10408444;28;20045;-81
2023/03/04 20:32:23;;;;;;;37.60;15.03;;;;;;;;;;10400799;28;20060;-81
2023/03/04 20:37:24;;;;;;;33.13;14.77;;;;;;;;;;10403069;28;20035;-80
2023/03/04 20:42:25;;;;;;;28.77;13.57;;;;;;;;;;10408783;28;20091;-80
2023/03/04 20:47:26;;;;;;;9.63;4.63;;;;;;;;;;10408663;28;20470;-82
2023/03/04 20:52:27;;;;;;;11.57;5.43;;;;;;;;;;10407852;28;20029;-82
2023/03/04 20:57:29;;;;;;;8.87;4.23;;;;;;;;;;10407896;28;20061;-81
2023/03/04 21:02:30;;;;;;;7.77;4.10;;;;;;;;;;10388889;28;20355;-82
2023/03/04 21:07:31;;;;;;;12.87;5.30;;;;;;;;;;10407661;28;20120;-82
2023/03/04 21:12:32;;;;;;;14.40;5.13;;;;;;;;;;10408015;28;20079;-82
2023/03/04 21:17:33;;;;;;;13.17;4.57;;;;;;;;;;10405592;28;20029;-81
2023/03/04 21:22:34;;;;;;;11.97;5.67;;;;;;;;;;10406948;28;20036;-81
2023/03/04 21:27:41;;;;;;;13.37;5.07;;;;;;;;;;10407002;28;20384;-81
2023/03/04 21:32:42;;;;;;;14.87;5.17;;;;;;;;;;10405037;28;20025;-81
2023/03/04 21:37:43;;;;;;;12.90;5.27;;;;;;;;;;10392361;28;20141;-82
2023/03/04 21:42:44;;;;;;;14.53;5.97;;;;;;;;;;10371203;28;20037;-82
2023/03/04 21:47:45;;;;;;;16.30;5.03;;;;;;;;;;10379554;28;20042;-82
2023/03/04 21:52:46;;;;;;;15.17;5.50;;;;;;;;;;10364418;28;20552;-85
2023/03/04 21:57:47;;;;;;;16.57;6.77;;;;;;;;;;10376715;28;20064;-83
2023/03/04 22:02:48;;;;;;;23.80;8.23;;;;;;;;;;10377779;28;20038;-85
2023/03/04 22:07:49;;;;;;;19.60;8.10;;;;;;;;;;10376215;28;20029;-84
2023/03/04 22:12:50;;;;;;;17.80;6.90;;;;;;;;;;10392954;28;20022;-84
2023/03/04 22:17:51;;;;;;;18.50;6.80;;;;;;;;;;10395534;28;20029;-83
2023/03/04 22:22:52;;;;;;;16.13;7.27;;;;;;;;;;10377462;28;20030;-83
2023/03/04 22:27:53;;;;;;;21.27;7.97;;;;;;;;;;10393199;28;20037;-84
2023/03/04 22:32:54;;;;;;;17.23;6.67;;;;;;;;;;10377910;28;20029;-84
2023/03/04 22:37:55;;;;;;;15.80;6.40;;;;;;;;;;10388810;28;20074;-84
2023/03/04 22:42:56;;;;;;;17.20;7.17;;;;;;;;;;10398880;28;20029;-84
2023/03/04 22:47:57;;;;;;;17.23;6.97;;;;;;;;;;10382616;28;20044;-84
2023/03/04 22:52:58;;;;;;;16.93;7.37;;;;;;;;;;10383194;28;20041;-83
2023/03/04 22:58:00;;;;;;;18.77;7.90;;;;;;;;;;10399874;28;20056;-85
2023/03/04 23:03:01;;;;;;;21.90;9.67;;;;;;;;;;10385874;28;20389;-83
2023/03/04 23:08:02;;;;;;;23.33;9.23;;;;;;;;;;10383934;28;20036;-83
2023/03/04 23:13:03;;;;;;;24.77;10.20;;;;;;;;;;10379420;28;20040;-83
2023/03/04 23:18:04;;;;;;;21.50;9.23;;;;;;;;;;10390068;28;20033;-83
2023/03/04 23:23:05;;;;;;;16.73;7.50;;;;;;;;;;10388773;28;20034;-84
2023/03/04 23:28:06;;;;;;;21.33;7.67;;;;;;;;;;10390821;28;20473;-84
2023/03/04 23:33:07;;;;;;;18.07;7.27;;;;;;;;;;10390436;28;20046;-84
2023/03/04 23:38:08;;;;;;;22.73;9.70;;;;;;;;;;10382198;28;20034;-84
2023/03/04 23:43:09;;;;;;;22.33;9.87;;;;;;;;;;10392454;28;20033;-83
2023/03/04 23:48:10;;;;;;;22.07;8.73;;;;;;;;;;10383478;28;20025;-84
2023/03/04 23:53:11;;;;;;;17.27;7.50;;;;;;;;;;10370073;28;20457;-84
2023/03/04 23:58:12;;;;;;;20.17;8.03;;;;;;;;;;10400760;28;20054;-83
